createdAt,value
2023-01-29T00:10:31.677Z,2.12
2023-01-29T00:25:33.920Z,2.18
2023-01-29T00:40:36.127Z,2.19
2023-01-29T00:55:38.450Z,2.21
2023-01-29T01:10:40.718Z,2
2023-01-29T01:25:42.974Z,1.86
2023-01-29T01:40:45.204Z,2
2023-01-29T01:55:47.469Z,1.85
2023-01-29T02:10:49.685Z,1.56
2023-01-29T02:25:51.939Z,1.59
2023-01-29T02:40:54.183Z,1.69
2023-01-29T02:55:56.401Z,1.73
2023-01-29T03:10:58.678Z,1.57
2023-01-29T03:26:00.994Z,1.58
2023-01-29T03:41:03.349Z,1.49
2023-01-29T03:56:05.587Z,1.2
2023-01-29T04:11:07.834Z,1.08
2023-01-29T04:26:10.078Z,0.93
2023-01-29T04:41:12.300Z,0.09
2023-01-29T04:56:14.500Z,0.54
2023-01-29T05:11:17.616Z,0.22
2023-01-29T05:26:19.855Z,-0.55
2023-01-29T05:41:22.071Z,-0.89
2023-01-29T05:56:24.337Z,-0.92
2023-01-29T06:11:26.600Z,-1.2
2023-01-29T06:26:28.862Z,-1.64
2023-01-29T06:41:31.176Z,-1.83
2023-01-29T06:56:33.639Z,-1.9
2023-01-29T07:11:35.869Z,-2.52
2023-01-29T07:26:38.208Z,-2.1
2023-01-29T07:41:40.463Z,-2.44
2023-01-29T07:56:42.704Z,-2.39
2023-01-29T08:11:44.974Z,-2.61
2023-01-29T08:26:47.556Z,-3.01
2023-01-29T08:41:49.965Z,-2.97
2023-01-29T08:56:52.352Z,-3.35
2023-01-29T09:11:54.515Z,-3.18
2023-01-29T09:26:56.797Z,-3.62
2023-01-29T09:41:59.033Z,-3.73
2023-01-29T09:57:01.296Z,-4.65
2023-01-29T10:12:03.630Z,-4.08
2023-01-29T10:27:05.986Z,-3.73
2023-01-29T10:42:08.189Z,-3.37
2023-01-29T10:57:10.522Z,-3.67
2023-01-29T11:12:12.874Z,-3.41
2023-01-29T11:27:15.120Z,-3.38
2023-01-29T11:42:17.359Z,-3.47
2023-01-29T11:57:20.175Z,-3.86
2023-01-29T12:12:22.537Z,-3.81
2023-01-29T12:27:24.771Z,-3.94
2023-01-29T12:42:26.957Z,-4.1
2023-01-29T12:57:29.224Z,-4.16
2023-01-29T13:12:31.519Z,-3.93
2023-01-29T13:27:33.772Z,-4.31
2023-01-29T13:42:35.996Z,-4.51
2023-01-29T13:57:38.288Z,-4.88
2023-01-29T14:12:40.514Z,-4.81
2023-01-29T14:27:42.855Z,-5.4
2023-01-29T14:42:45.236Z,-5.16
2023-01-29T14:57:47.470Z,-5.15
2023-01-29T15:12:49.707Z,-5.49
2023-01-29T15:27:51.898Z,-5.65
2023-01-29T15:42:54.110Z,-6.09
2023-01-29T15:57:56.656Z,-6.31
2023-01-29T16:12:58.954Z,-5.25
2023-01-29T16:28:01.221Z,-1.28
2023-01-29T16:43:03.498Z,3.35
2023-01-29T16:58:05.858Z,1.31
2023-01-29T17:13:08.268Z,-2.48
2023-01-29T17:28:10.631Z,-0.48
2023-01-29T17:43:13.119Z,-1.33
2023-01-29T17:58:15.293Z,-1.75
2023-01-29T18:13:17.629Z,-2.49
2023-01-29T18:28:19.855Z,-2.89
2023-01-29T18:43:22.089Z,-2.36
2023-01-29T18:58:26.639Z,-2.9
2023-01-29T19:13:37.442Z,-1.6
2023-01-29T19:28:39.769Z,-2.43
2023-01-29T19:43:42.029Z,-1.57
2023-01-29T19:58:44.238Z,-1.13
2023-01-29T20:13:46.417Z,-0.16
2023-01-29T20:28:48.649Z,0.86
2023-01-29T20:43:50.883Z,1.2
2023-01-29T20:58:53.173Z,2.55
2023-01-29T21:13:55.441Z,0.2
2023-01-29T21:28:57.692Z,0
2023-01-29T21:44:00.252Z,0.54
2023-01-29T21:59:02.615Z,0.99
2023-01-29T22:14:05.062Z,1.79
2023-01-29T22:29:07.289Z,1.43
2023-01-29T22:44:09.549Z,0.94
2023-01-29T22:59:11.772Z,1.42
2023-01-29T23:14:14.050Z,1.12
2023-01-29T23:29:16.299Z,0.93
2023-01-29T23:44:18.853Z,0.54
2023-01-29T23:59:21.124Z,0.6
